METAR AND TAF INFORMATION
METAR FOR LIRN
ADDS - METARS form results

(2309 UTC 22 May 2018)
Data provider http://aviationweather.gov/adds/metars/
 
METAR text: LIRN 222250Z 17006KT 120V220 8000 -RA FEW030 BKN070 19/16 Q1015 NOSIG
Conditions at: LIRN (NAPLES/CAPODICHI, IT) observed 2250 UTC 22 May 2018
Temperature: 19.0°C (66°F)
Dewpoint: 16.0°C (61°F) [RH = 83%]
Pressure (altimeter): 29.97 inches Hg (1015.0 mb)
Winds: from the S (170 degrees) at 7 MPH (6 knots; 3.1 m/s)
Visibility: 5 miles (8 km)
Ceiling: 7000 feet AGL
Clouds: few clouds at 3000 feet AGL
broken clouds at 7000 feet AGL
Weather: -RA  (light rain)

METAR text: LIRN 222220Z VRB03KT 8000 -RA FEW030 BKN070 19/18 Q1015 NOSIG
Conditions at: LIRN (NAPLES/CAPODICHI, IT) observed 2220 UTC 22 May 2018
Temperature: 19.0°C (66°F)
Dewpoint: 18.0°C (64°F) [RH = 94%]
Pressure (altimeter): 29.97 inches Hg (1015.0 mb)
Winds: variable direction winds at 3 MPH (3 knots; 1.6 m/s)
Visibility: 5 miles (8 km)
Ceiling: 7000 feet AGL
Clouds: few clouds at 3000 feet AGL
broken clouds at 7000 feet AGL
Weather: -RA  (light rain)

Forecast for: LIRN (NAPLES/CAPODICHI, IT)
Text: TAF LIRN 221700Z 2218/2318 VRB05KT 9999 SCT030
Forecast period: 1800 UTC 22 May 2018 to 1800 UTC 23 May 2018
Forecast type: FROM: standard forecast or significant change
Winds: variable direction winds at 6 MPH (5 knots; 2.6 m/s)
Visibility: 6 or more miles (10+ km)
Clouds: scattered clouds at 3000 feet AGL
Weather: no significant weather forecast for this period
Forecast for: LIRN (NAPLES/CAPODICHI, IT)
Text: TAF LIRN 221700Z 2218/2318 VRB05KT 9999 SCT030
Forecast period: 1800 UTC 22 May 2018 to 1800 UTC 23 May 2018
Forecast type: FROM: standard forecast or significant change
Winds: variable direction winds at 6 MPH (5 knots; 2.6 m/s)
Visibility: 6 or more miles (10+ km)
Clouds: scattered clouds at 3000 feet AGL
Weather: no significant weather forecast for this period
Forecast for: LIRN (NAPLES/CAPODICHI, IT)
Text: TAF LIRN 221700Z 2218/2318 VRB05KT 9999 SCT030
Forecast period: 2200 UTC 22 May 2018 to 0700 UTC 23 May 2018
Forecast type: TEMPORARY: The following changes expected for less than half the time period
Weather: TSRA  (rain associated with thunderstorm(s))
Forecast for: LIRN (NAPLES/CAPODICHI, IT)
Text: TAF LIRN 221700Z 2218/2318 VRB05KT 9999 SCT030
Forecast period: 2200 UTC 22 May 2018 to 0700 UTC 23 May 2018
Forecast type: TEMPORARY: The following changes expected for less than half the time period
Weather: TSRA  (rain associated with thunderstorm(s))

 AIRPORT MAP

 RUNWAY INFORMATION
Runway 06 Runway length 8622 ft Runway width 148 ft
Runway elevation 284 ft Runway displaced threshold 1309 ft Runway heading 58
Runway 24 Runway length 8622 ft Runway width 148 ft
Runway elevation 223 ft Runway displaced threshold 624 ft Runway heading 238

 AIRPORT FREQUENCIES
Type APP Name NAPOLI RAD Frequency 124.35 MHZ
Type ATIS Name ATIS Frequency 135.975 MHZ
Type DIR Name NAPOLI DIR Frequency 120.95 MHZ
Type GCCD Name NAPOLI GND Frequency 121.9 MHZ
Type OPS Name USN BASE O Frequency 118.275 MHZ
Type PMSV Name PMSV METRO Frequency 34.1 MHZ
Type POST Name ATOC Frequency 118.275 MHZ
Type TWR Name NAPOLI TWR Frequency 118.5 MHZ

 AIRPORT NEAR NAVIGATION AIDS
Type VOR-DME Name Pomigliano Frequency 117850 KHZ
Type NDB Name Pomigliano Frequency 351 KHZ



Powered by Virtual Airlines Manager [v2.6.2]